AIC091 VOMM-VOBL
Flight info
| Callsign | AIC091 |
|---|---|
| Flight time | 0h 35m |
| Altitude | 24000 |
| Route | MMV W117 XIVIL XIVIL7E |
| Aircraft | A319/M-SDE3FGHIRWY/LB1 |
Departure
| Time | 2026-04-24 13:07 |
|---|---|
| Airport | Chennai International Airport (VOMM) |
Arrival
| Time | 2026-04-24 13:42 |
|---|---|
| Airport | Kempegowda International Airport Bengaluru (VOBL) |
| Time | Latitude | Longitude | Altitude | Speed | Heading |
|---|---|---|---|---|---|
| 2026-04-24 12:31 | 12.99554 | 80.16762 | 46 ft | 0 kts | 30° |
| 2026-04-24 12:55 | 12.99550 | 80.16760 | 48 ft | 4 kts | 28° |
| 2026-04-24 12:55 | 12.99542 | 80.16755 | 46 ft | 4 kts | 29° |
| 2026-04-24 12:55 | 12.99518 | 80.16741 | 45 ft | 4 kts | 32° |
| 2026-04-24 12:55 | 12.99496 | 80.16726 | 45 ft | 4 kts | 37° |
| 2026-04-24 12:56 | 12.99476 | 80.16708 | 46 ft | 4 kts | 51° |
| 2026-04-24 12:56 | 12.99470 | 80.16700 | 44 ft | 0 kts | 53° |
| 2026-04-24 12:57 | 12.99468 | 80.16699 | 44 ft | 0 kts | 73° |
| 2026-04-24 12:58 | 12.99467 | 80.16699 | 44 ft | 1 kts | 77° |
| 2026-04-24 12:58 | 12.99466 | 80.16695 | 47 ft | 0 kts | 105° |
| 2026-04-24 12:59 | 12.99463 | 80.16703 | 49 ft | 4 kts | 108° |
| 2026-04-24 12:59 | 12.99447 | 80.16736 | 49 ft | 6 kts | 117° |
| 2026-04-24 12:59 | 12.99425 | 80.16778 | 49 ft | 7 kts | 118° |
| 2026-04-24 13:00 | 12.99399 | 80.16829 | 49 ft | 9 kts | 118° |
| 2026-04-24 13:00 | 12.99369 | 80.16889 | 48 ft | 10 kts | 116° |
| 2026-04-24 13:00 | 12.99336 | 80.16957 | 46 ft | 10 kts | 116° |
| 2026-04-24 13:00 | 12.99313 | 80.17003 | 48 ft | 7 kts | 117° |
| 2026-04-24 13:01 | 12.99273 | 80.17030 | 49 ft | 8 kts | 187° |
| 2026-04-24 13:01 | 12.99235 | 80.16987 | 48 ft | 9 kts | 250° |
| 2026-04-24 13:01 | 12.99213 | 80.16921 | 48 ft | 10 kts | 250° |
| 2026-04-24 13:01 | 12.99184 | 80.16849 | 47 ft | 12 kts | 248° |
| 2026-04-24 13:02 | 12.99155 | 80.16772 | 48 ft | 11 kts | 249° |
| 2026-04-24 13:02 | 12.99126 | 80.16696 | 48 ft | 12 kts | 249° |
| 2026-04-24 13:02 | 12.99096 | 80.16615 | 48 ft | 13 kts | 249° |
| 2026-04-24 13:02 | 12.99066 | 80.16533 | 49 ft | 12 kts | 249° |
| 2026-04-24 13:03 | 12.99039 | 80.16458 | 49 ft | 11 kts | 249° |
| 2026-04-24 13:03 | 12.99009 | 80.16379 | 49 ft | 13 kts | 249° |
| 2026-04-24 13:03 | 12.98975 | 80.16290 | 49 ft | 14 kts | 248° |
| 2026-04-24 13:03 | 12.98939 | 80.16194 | 48 ft | 15 kts | 250° |
| 2026-04-24 13:04 | 12.98903 | 80.16088 | 45 ft | 16 kts | 252° |
| 2026-04-24 13:04 | 12.98854 | 80.15981 | 46 ft | 17 kts | 246° |
| 2026-04-24 13:04 | 12.98806 | 80.15866 | 48 ft | 16 kts | 249° |
| 2026-04-24 13:04 | 12.98747 | 80.15813 | 48 ft | 13 kts | 159° |
| 2026-04-24 13:05 | 12.98730 | 80.15821 | 47 ft | 0 kts | 156° |
| 2026-04-24 13:05 | 12.98729 | 80.15821 | 47 ft | 1 kts | 156° |
| 2026-04-24 13:05 | 12.98701 | 80.15834 | 47 ft | 8 kts | 157° |
| 2026-04-24 13:06 | 12.98641 | 80.15865 | 47 ft | 10 kts | 133° |
| 2026-04-24 13:06 | 12.98654 | 80.15937 | 47 ft | 13 kts | 68° |
| 2026-04-24 13:06 | 12.98777 | 80.16265 | 47 ft | 88 kts | 69° |
| 2026-04-24 13:06 | 12.99076 | 80.17068 | 47 ft | 150 kts | 70° |
| 2026-04-24 13:07 | 12.99488 | 80.18151 | 419 ft | 167 kts | 72° |
| 2026-04-24 13:07 | 12.99903 | 80.19263 | 1013 ft | 167 kts | 73° |
| 2026-04-24 13:07 | 13.00542 | 80.20295 | 1526 ft | 186 kts | 42° |
| 2026-04-24 13:07 | 13.01841 | 80.20731 | 1798 ft | 214 kts | 358° |
| 2026-04-24 13:08 | 13.03400 | 80.20438 | 2085 ft | 241 kts | 346° |
| 2026-04-24 13:08 | 13.05118 | 80.20038 | 2548 ft | 265 kts | 346° |
| 2026-04-24 13:08 | 13.06985 | 80.19601 | 3087 ft | 282 kts | 347° |
| 2026-04-24 13:09 | 13.10647 | 80.18131 | 4893 ft | 291 kts | 318° |
| 2026-04-24 13:09 | 13.11906 | 80.16490 | 5639 ft | 297 kts | 306° |
| 2026-04-24 13:09 | 13.13042 | 80.14770 | 5775 ft | 293 kts | 305° |
| 2026-04-24 13:09 | 13.14170 | 80.13039 | 5801 ft | 291 kts | 305° |
| 2026-04-24 13:10 | 13.15294 | 80.11313 | 5806 ft | 290 kts | 305° |
| 2026-04-24 13:10 | 13.16414 | 80.09590 | 5802 ft | 289 kts | 303° |
| 2026-04-24 13:10 | 13.17183 | 80.07680 | 5808 ft | 294 kts | 283° |
| 2026-04-24 13:10 | 13.17299 | 80.05597 | 5804 ft | 293 kts | 263° |
| 2026-04-24 13:11 | 13.16759 | 80.03590 | 5806 ft | 294 kts | 247° |
| 2026-04-24 13:11 | 13.15985 | 80.01642 | 5802 ft | 294 kts | 247° |
| 2026-04-24 13:11 | 13.15219 | 79.99702 | 5804 ft | 293 kts | 247° |
| 2026-04-24 13:11 | 13.14457 | 79.97764 | 5804 ft | 292 kts | 247° |
| 2026-04-24 13:12 | 13.13699 | 79.95832 | 5800 ft | 291 kts | 248° |
| 2026-04-24 13:12 | 13.12935 | 79.93884 | 6002 ft | 298 kts | 248° |
| 2026-04-24 13:12 | 13.12159 | 79.91908 | 6594 ft | 299 kts | 248° |
| 2026-04-24 13:12 | 13.11379 | 79.89922 | 7489 ft | 301 kts | 248° |
| 2026-04-24 13:13 | 13.10590 | 79.87918 | 8353 ft | 305 kts | 248° |
| 2026-04-24 13:13 | 13.09790 | 79.85880 | 9194 ft | 310 kts | 248° |
| 2026-04-24 13:13 | 13.08976 | 79.83809 | 9962 ft | 318 kts | 248° |
| 2026-04-24 13:13 | 13.08331 | 79.81554 | 10260 ft | 341 kts | 261° |
| 2026-04-24 13:14 | 13.08159 | 79.79070 | 10675 ft | 355 kts | 274° |
| 2026-04-24 13:14 | 13.08506 | 79.76553 | 11386 ft | 358 kts | 285° |
| 2026-04-24 13:14 | 13.09120 | 79.74101 | 12158 ft | 361 kts | 286° |
| 2026-04-24 13:14 | 13.09741 | 79.71595 | 12945 ft | 364 kts | 286° |
| 2026-04-24 13:15 | 13.10363 | 79.69075 | 13713 ft | 366 kts | 286° |
| 2026-04-24 13:15 | 13.10991 | 79.66536 | 14369 ft | 369 kts | 286° |
| 2026-04-24 13:15 | 13.11627 | 79.63966 | 14989 ft | 374 kts | 285° |
| 2026-04-24 13:15 | 13.12267 | 79.61369 | 15608 ft | 378 kts | 285° |
| 2026-04-24 13:16 | 13.12915 | 79.58736 | 16197 ft | 383 kts | 285° |
| 2026-04-24 13:16 | 13.13571 | 79.56075 | 16801 ft | 387 kts | 284° |
| 2026-04-24 13:16 | 13.14235 | 79.53386 | 17419 ft | 390 kts | 284° |
| 2026-04-24 13:16 | 13.14907 | 79.50672 | 18014 ft | 394 kts | 283° |
| 2026-04-24 13:17 | 13.15584 | 79.47932 | 18552 ft | 397 kts | 283° |
| 2026-04-24 13:17 | 13.16262 | 79.45178 | 19084 ft | 400 kts | 283° |
| 2026-04-24 13:17 | 13.16946 | 79.42403 | 19630 ft | 402 kts | 283° |
| 2026-04-24 13:17 | 13.17635 | 79.39611 | 20164 ft | 405 kts | 283° |
| 2026-04-24 13:18 | 13.18329 | 79.36797 | 20698 ft | 408 kts | 283° |
| 2026-04-24 13:18 | 13.19026 | 79.33966 | 21274 ft | 410 kts | 282° |
| 2026-04-24 13:18 | 13.19717 | 79.31159 | 21809 ft | 413 kts | 283° |
| 2026-04-24 13:18 | 13.20423 | 79.28298 | 22381 ft | 415 kts | 283° |
| 2026-04-24 13:19 | 13.21137 | 79.25416 | 22924 ft | 418 kts | 282° |
| 2026-04-24 13:19 | 13.21855 | 79.22513 | 23436 ft | 421 kts | 282° |
| 2026-04-24 13:19 | 13.22577 | 79.19596 | 23729 ft | 422 kts | 282° |
| 2026-04-24 13:19 | 13.23299 | 79.16684 | 23811 ft | 418 kts | 282° |
| 2026-04-24 13:20 | 13.24012 | 79.13811 | 23835 ft | 414 kts | 283° |
| 2026-04-24 13:20 | 13.24719 | 79.10956 | 23855 ft | 412 kts | 283° |
| 2026-04-24 13:20 | 13.25423 | 79.08113 | 23854 ft | 411 kts | 282° |
| 2026-04-24 13:20 | 13.26128 | 79.05264 | 23864 ft | 411 kts | 282° |
| 2026-04-24 13:21 | 13.26592 | 79.03385 | 23864 ft | 409 kts | 282° |
| 2026-04-24 13:21 | 13.27522 | 78.99609 | 23863 ft | 408 kts | 282° |
| 2026-04-24 13:21 | 13.27981 | 78.97737 | 23879 ft | 407 kts | 282° |
| 2026-04-24 13:21 | 13.28897 | 78.93965 | 23879 ft | 407 kts | 281° |
| 2026-04-24 13:22 | 13.29277 | 78.91135 | 23879 ft | 405 kts | 270° |
| 2026-04-24 13:22 | 13.29184 | 78.88255 | 23878 ft | 403 kts | 264° |
| 2026-04-24 13:22 | 13.28970 | 78.85385 | 23879 ft | 403 kts | 264° |
| 2026-04-24 13:22 | 13.28830 | 78.83451 | 23895 ft | 403 kts | 264° |
| 2026-04-24 13:23 | 13.28559 | 78.79650 | 23894 ft | 403 kts | 264° |
| 2026-04-24 13:23 | 13.28421 | 78.77714 | 23893 ft | 403 kts | 264° |
| 2026-04-24 13:23 | 13.28219 | 78.74847 | 23892 ft | 403 kts | 264° |
| 2026-04-24 13:23 | 13.28017 | 78.71983 | 23892 ft | 403 kts | 264° |
| 2026-04-24 13:24 | 13.27811 | 78.69116 | 23892 ft | 402 kts | 264° |
| 2026-04-24 13:24 | 13.27603 | 78.66254 | 23913 ft | 402 kts | 264° |
| 2026-04-24 13:24 | 13.27394 | 78.63394 | 23917 ft | 401 kts | 264° |
| 2026-04-24 13:24 | 13.27185 | 78.60537 | 23920 ft | 401 kts | 264° |
| 2026-04-24 13:25 | 13.26974 | 78.57685 | 23922 ft | 400 kts | 264° |
| 2026-04-24 13:25 | 13.26765 | 78.54840 | 23921 ft | 400 kts | 264° |
| 2026-04-24 13:25 | 13.26559 | 78.52028 | 23920 ft | 400 kts | 264° |
| 2026-04-24 13:25 | 13.26350 | 78.49175 | 23918 ft | 400 kts | 264° |
| 2026-04-24 13:26 | 13.26272 | 78.46321 | 23916 ft | 401 kts | 272° |
| 2026-04-24 13:26 | 13.26639 | 78.43480 | 23917 ft | 402 kts | 277° |
| 2026-04-24 13:26 | 13.27099 | 78.40647 | 23915 ft | 402 kts | 278° |
| 2026-04-24 13:26 | 13.27558 | 78.37812 | 23925 ft | 402 kts | 277° |
| 2026-04-24 13:27 | 13.28007 | 78.34996 | 23663 ft | 396 kts | 277° |
| 2026-04-24 13:27 | 13.28442 | 78.32257 | 23583 ft | 381 kts | 277° |
| 2026-04-24 13:27 | 13.28863 | 78.29622 | 23506 ft | 367 kts | 277° |
| 2026-04-24 13:27 | 13.29267 | 78.27090 | 23428 ft | 352 kts | 277° |
| 2026-04-24 13:28 | 13.29658 | 78.24645 | 23184 ft | 344 kts | 277° |
| 2026-04-24 13:28 | 13.30043 | 78.22233 | 22771 ft | 341 kts | 277° |
| 2026-04-24 13:28 | 13.30375 | 78.19827 | 22352 ft | 338 kts | 271° |
| 2026-04-24 13:28 | 13.30435 | 78.17426 | 21935 ft | 336 kts | 269° |
| 2026-04-24 13:29 | 13.30462 | 78.15030 | 21512 ft | 335 kts | 269° |
| 2026-04-24 13:29 | 13.30495 | 78.12640 | 21094 ft | 334 kts | 269° |
| 2026-04-24 13:29 | 13.30530 | 78.10254 | 20675 ft | 335 kts | 268° |
| 2026-04-24 13:29 | 13.30565 | 78.07861 | 20242 ft | 335 kts | 268° |
| 2026-04-24 13:30 | 13.30599 | 78.05470 | 19808 ft | 336 kts | 268° |
| 2026-04-24 13:30 | 13.30633 | 78.03067 | 19370 ft | 337 kts | 269° |
| 2026-04-24 13:30 | 13.30667 | 78.00654 | 18926 ft | 339 kts | 270° |
| 2026-04-24 13:30 | 13.30702 | 77.98221 | 18475 ft | 341 kts | 269° |
| 2026-04-24 13:31 | 13.30736 | 77.95782 | 17985 ft | 343 kts | 269° |
| 2026-04-24 13:31 | 13.30769 | 77.93329 | 17523 ft | 343 kts | 269° |
| 2026-04-24 13:31 | 13.30804 | 77.90882 | 17076 ft | 343 kts | 270° |
| 2026-04-24 13:31 | 13.30841 | 77.88472 | 16954 ft | 332 kts | 270° |
| 2026-04-24 13:32 | 13.30876 | 77.86171 | 16844 ft | 322 kts | 270° |
| 2026-04-24 13:32 | 13.30906 | 77.83902 | 16709 ft | 313 kts | 270° |
| 2026-04-24 13:32 | 13.30933 | 77.81695 | 16573 ft | 305 kts | 270° |
| 2026-04-24 13:32 | 13.30960 | 77.79548 | 16439 ft | 297 kts | 270° |
| 2026-04-24 13:33 | 13.30984 | 77.77451 | 16275 ft | 291 kts | 270° |
| 2026-04-24 13:33 | 13.31003 | 77.75341 | 15745 ft | 300 kts | 270° |
| 2026-04-24 13:33 | 13.31022 | 77.73174 | 15251 ft | 307 kts | 271° |
| 2026-04-24 13:33 | 13.31038 | 77.70962 | 14758 ft | 313 kts | 271° |
| 2026-04-24 13:34 | 13.31055 | 77.68708 | 14276 ft | 318 kts | 271° |
| 2026-04-24 13:34 | 13.31074 | 77.66417 | 13799 ft | 323 kts | 272° |
| 2026-04-24 13:34 | 13.31094 | 77.64102 | 13267 ft | 326 kts | 272° |
| 2026-04-24 13:34 | 13.31113 | 77.61779 | 12738 ft | 324 kts | 272° |
| 2026-04-24 13:35 | 13.31129 | 77.59474 | 12218 ft | 322 kts | 272° |
| 2026-04-24 13:35 | 13.31143 | 77.57182 | 11706 ft | 320 kts | 271° |
| 2026-04-24 13:35 | 13.31160 | 77.54904 | 11205 ft | 318 kts | 271° |
| 2026-04-24 13:35 | 13.31178 | 77.52652 | 10705 ft | 313 kts | 271° |
| 2026-04-24 13:36 | 13.31189 | 77.50440 | 10213 ft | 306 kts | 269° |
| 2026-04-24 13:36 | 13.30772 | 77.48330 | 9745 ft | 300 kts | 246° |
| 2026-04-24 13:36 | 13.29641 | 77.46574 | 9215 ft | 293 kts | 223° |
| 2026-04-24 13:36 | 13.28023 | 77.45404 | 8832 ft | 280 kts | 202° |
| 2026-04-24 13:37 | 13.26187 | 77.44870 | 8326 ft | 272 kts | 188° |
| 2026-04-24 13:37 | 13.24337 | 77.44585 | 7821 ft | 265 kts | 176° |
| 2026-04-24 13:37 | 13.22614 | 77.45047 | 7328 ft | 254 kts | 147° |
| 2026-04-24 13:37 | 13.21408 | 77.46253 | 6974 ft | 240 kts | 119° |
| 2026-04-24 13:38 | 13.20897 | 77.47814 | 6726 ft | 227 kts | 95° |
| 2026-04-24 13:38 | 13.20867 | 77.49405 | 6468 ft | 220 kts | 90° |
| 2026-04-24 13:38 | 13.20858 | 77.50953 | 6207 ft | 216 kts | 91° |
| 2026-04-24 13:38 | 13.20846 | 77.52503 | 5930 ft | 217 kts | 91° |
| 2026-04-24 13:39 | 13.20834 | 77.54057 | 5662 ft | 218 kts | 92° |
| 2026-04-24 13:39 | 13.20822 | 77.55603 | 5393 ft | 213 kts | 92° |
| 2026-04-24 13:39 | 13.20811 | 77.57083 | 5134 ft | 203 kts | 92° |
| 2026-04-24 13:39 | 13.20800 | 77.58494 | 4892 ft | 193 kts | 94° |
| 2026-04-24 13:40 | 13.20789 | 77.59844 | 4643 ft | 185 kts | 94° |
| 2026-04-24 13:40 | 13.20778 | 77.61137 | 4415 ft | 176 kts | 92° |
| 2026-04-24 13:40 | 13.20768 | 77.62362 | 4196 ft | 168 kts | 95° |
| 2026-04-24 13:40 | 13.20784 | 77.63555 | 3860 ft | 167 kts | 95° |
| 2026-04-24 13:41 | 13.20768 | 77.64725 | 3587 ft | 162 kts | 93° |
| 2026-04-24 13:41 | 13.20741 | 77.65847 | 3421 ft | 155 kts | 92° |
| 2026-04-24 13:41 | 13.20733 | 77.66961 | 3377 ft | 158 kts | 91° |
| 2026-04-24 13:41 | 13.20728 | 77.68089 | 3171 ft | 158 kts | 94° |
| 2026-04-24 13:42 | 13.20709 | 77.69210 | 3020 ft | 148 kts | 91° |
| 2026-04-24 13:42 | 13.20705 | 77.70097 | 3011 ft | 68 kts | 90° |
| 2026-04-24 13:42 | 13.20703 | 77.70399 | 3011 ft | 36 kts | 94° |
| 2026-04-24 13:42 | 13.20594 | 77.70614 | 3015 ft | 33 kts | 121° |
| 2026-04-24 13:43 | 13.20528 | 77.70754 | 3011 ft | 19 kts | 93° |
| 2026-04-24 13:43 | 13.20528 | 77.70849 | 3011 ft | 11 kts | 98° |
| 2026-04-24 13:43 | 13.20469 | 77.70872 | 3011 ft | 10 kts | 195° |
| 2026-04-24 13:43 | 13.20436 | 77.70816 | 3011 ft | 10 kts | 273° |
| 2026-04-24 13:44 | 13.20445 | 77.70743 | 3011 ft | 10 kts | 277° |
| 2026-04-24 13:44 | 13.20446 | 77.70667 | 3011 ft | 11 kts | 268° |
| 2026-04-24 13:44 | 13.20445 | 77.70612 | 3011 ft | 7 kts | 269° |
| 2026-04-24 13:44 | 13.20443 | 77.70573 | 3011 ft | 3 kts | 264° |
| 2026-04-24 13:45 | 13.20432 | 77.70569 | 3013 ft | 2 kts | 194° |
| 2026-04-24 13:45 | 13.20413 | 77.70569 | 3016 ft | 3 kts | 179° |
| 2026-04-24 13:45 | 13.20407 | 77.70569 | 3014 ft | 0 kts | 179° |
| 2026-04-24 14:05 | 13.20410 | 77.70570 | 3011 ft | 4 kts | 174° |
| 2026-04-24 14:05 | 13.20427 | 77.70570 | 3019 ft | 4 kts | 218° |
| 2026-04-24 14:06 | 13.20439 | 77.70587 | 3011 ft | 4 kts | 249° |